Cardinal — V7IB3 — position and weather

sailwx.info

Track history (hours):
 
Tides and Currents Weather Stations Pressure Air Temp Water Temp Dewpoint Dewpoint Depression Visibility Wind Speed Wind Dir Waves Ship Positions

Cardinal

Last reported at 2017-Mar-12 17:33 UTC. Time now 2017-Mar-28 21:50 UTC.
Position N 09°13' W 079°55'.
Warning: this ship's position is 16 days out of date.

Length 191 m; draft 12 m.

Type: Cargo ship. MMSI: 538002349.

Date/timePositionNaut miles runAvg speedWind from/ knotsBaromVisibWave heightAir tempDewpointWater temp
2017-Mar-12 17:33N 09°13' W 079°55'2 1.8
2017-Mar-12 16:29N 09°15' W 079°55'0 0.0
2017-Mar-12 15:33N 09°15' W 079°55'0 0.0
2017-Mar-12 14:34N 09°15' W 079°55'0 0.1
2017-Mar-12 13:32N 09°15' W 079°55'0 0.1
2017-Mar-12 12:14N 09°15' W 079°55'1 1.5
2017-Mar-12 11:33N 09°16' W 079°55'0 0.3
2017-Mar-12 10:33N 09°16' W 079°55'0 0.4
2017-Mar-12 09:33N 09°17' W 079°55'1 1.4
2017-Mar-12 08:33N 09°18' W 079°55'4 4.1
2017-Mar-12 07:33N 09°22' W 079°56'0 0.1
2017-Mar-12 06:33N 09°22' W 079°56'0 0.0
2017-Mar-12 05:33N 09°22' W 079°56'0 0.0
2017-Mar-12 04:33N 09°22' W 079°56'0 0.0
2017-Mar-12 03:33N 09°22' W 079°56'0 0.0
2017-Mar-12 02:33N 09°22' W 079°56'0 0.0
2017-Mar-12 01:30N 09°22' W 079°56'0 0.0
2017-Mar-12 00:30N 09°22' W 079°56'0 0.0
2017-Mar-11 23:33N 09°22' W 079°56'0 0.0
2017-Mar-11 22:33N 09°22' W 079°56'0 0.0
2017-Mar-11 21:30N 09°22' W 079°56'0 0.0
2017-Mar-11 20:33N 09°22' W 079°56'0 0.0
2017-Mar-11 19:33N 09°22' W 079°56'0 0.0
2017-Mar-11 18:33N 09°22' W 079°56'0 0.0
2017-Mar-11 17:33N 09°22' W 079°56'0 0.0
2017-Mar-11 16:33N 09°22' W 079°56'0 0.0
2017-Mar-11 15:33N 09°22' W 079°56'0 0.1
2017-Mar-11 14:33N 09°22' W 079°56'4 4.4
2017-Mar-11 13:33N 09°27' W 079°55'  
Track history (hours):
 
Tides and Currents Weather Stations Pressure Air Temp Water Temp Dewpoint Dewpoint Depression Visibility Wind Speed Wind Dir Waves Ship Positions

Cardinal

Last reported at 2017-Mar-12 17:33 UTC. Time now 2017-Mar-28 21:50 UTC.
Position N 09°13' W 079°55'.
Warning: this ship's position is 16 days out of date.

Length 191 m; draft 12 m.

Type: Cargo ship. MMSI: 538002349.

Date/timePositionNaut miles runAvg speedWind from/ knotsBaromVisibWave heightAir tempDewpointWater temp
2017-Mar-12 17:33N 09°13' W 079°55'2 1.8
2017-Mar-12 16:29N 09°15' W 079°55'0 0.0
2017-Mar-12 15:33N 09°15' W 079°55'0 0.0
2017-Mar-12 14:34N 09°15' W 079°55'0 0.1
2017-Mar-12 13:32N 09°15' W 079°55'0 0.1
2017-Mar-12 12:14N 09°15' W 079°55'1 1.5
2017-Mar-12 11:33N 09°16' W 079°55'0 0.3
2017-Mar-12 10:33N 09°16' W 079°55'0 0.4
2017-Mar-12 09:33N 09°17' W 079°55'1 1.4
2017-Mar-12 08:33N 09°18' W 079°55'4 4.1
2017-Mar-12 07:33N 09°22' W 079°56'0 0.1
2017-Mar-12 06:33N 09°22' W 079°56'0 0.0
2017-Mar-12 05:33N 09°22' W 079°56'0 0.0
2017-Mar-12 04:33N 09°22' W 079°56'0 0.0
2017-Mar-12 03:33N 09°22' W 079°56'0 0.0
2017-Mar-12 02:33N 09°22' W 079°56'0 0.0
2017-Mar-12 01:30N 09°22' W 079°56'0 0.0
2017-Mar-12 00:30N 09°22' W 079°56'0 0.0
2017-Mar-11 23:33N 09°22' W 079°56'0 0.0
2017-Mar-11 22:33N 09°22' W 079°56'0 0.0
2017-Mar-11 21:30N 09°22' W 079°56'0 0.0
2017-Mar-11 20:33N 09°22' W 079°56'0 0.0
2017-Mar-11 19:33N 09°22' W 079°56'0 0.0
2017-Mar-11 18:33N 09°22' W 079°56'0 0.0
2017-Mar-11 17:33N 09°22' W 079°56'0 0.0
2017-Mar-11 16:33N 09°22' W 079°56'0 0.0
2017-Mar-11 15:33N 09°22' W 079°56'0 0.1
2017-Mar-11 14:33N 09°22' W 079°56'4 4.4
2017-Mar-11 13:33N 09°27' W 079°55'  

Dump ship's entire track history